sensor_id;sensor_type;location;lat;lon;timestamp;pressure;altitude;pressure_sealevel;temperature;humidity
4767;BME280;2397;53.576;9.746;2023-06-10T00:02:13;101867.75;;;17.05;71.56
4767;BME280;2397;53.576;9.746;2023-06-10T00:04:40;101875.09;;;17.03;72.06
4767;BME280;2397;53.576;9.746;2023-06-10T00:07:07;101881.06;;;16.97;71.89
4767;BME280;2397;53.576;9.746;2023-06-10T00:09:36;101876.72;;;16.88;72.15
4767;BME280;2397;53.576;9.746;2023-06-10T00:12:07;101877.22;;;16.91;72.23
4767;BME280;2397;53.576;9.746;2023-06-10T00:14:38;101875.06;;;16.78;72.40
4767;BME280;2397;53.576;9.746;2023-06-10T00:17:05;101869.22;;;16.83;72.59
4767;BME280;2397;53.576;9.746;2023-06-10T00:19:37;101866.06;;;16.79;72.79
4767;BME280;2397;53.576;9.746;2023-06-10T00:22:07;101870.69;;;16.69;72.51
4767;BME280;2397;53.576;9.746;2023-06-10T00:24:35;101869.34;;;16.57;73.11
4767;BME280;2397;53.576;9.746;2023-06-10T00:27:02;101862.34;;;16.56;73.27
4767;BME280;2397;53.576;9.746;2023-06-10T00:29:29;101868.00;;;16.53;73.04
4767;BME280;2397;53.576;9.746;2023-06-10T00:31:56;101872.47;;;16.53;73.01
4767;BME280;2397;53.576;9.746;2023-06-10T00:34:24;101864.78;;;16.50;72.84
4767;BME280;2397;53.576;9.746;2023-06-10T00:36:51;101863.63;;;16.44;72.60
4767;BME280;2397;53.576;9.746;2023-06-10T00:39:17;101871.22;;;16.39;72.44
4767;BME280;2397;53.576;9.746;2023-06-10T00:41:44;101873.63;;;16.42;72.25
4767;BME280;2397;53.576;9.746;2023-06-10T00:44:11;101863.22;;;16.31;71.94
4767;BME280;2397;53.576;9.746;2023-06-10T00:46:38;101869.16;;;16.17;72.50
4767;BME280;2397;53.576;9.746;2023-06-10T00:49:05;101874.94;;;16.13;72.30
4767;BME280;2397;53.576;9.746;2023-06-10T00:51:32;101872.16;;;16.22;71.08
4767;BME280;2397;53.576;9.746;2023-06-10T00:53:59;101878.28;;;16.15;71.20
4767;BME280;2397;53.576;9.746;2023-06-10T00:56:26;101881.75;;;16.07;71.03
4767;BME280;2397;53.576;9.746;2023-06-10T00:58:54;101885.88;;;16.02;71.15
4767;BME280;2397;53.576;9.746;2023-06-10T01:01:21;101881.09;;;16.05;70.80
4767;BME280;2397;53.576;9.746;2023-06-10T01:03:47;101885.72;;;16.03;71.07
4767;BME280;2397;53.576;9.746;2023-06-10T01:06:32;101882.13;;;16.12;69.80
4767;BME280;2397;53.576;9.746;2023-06-10T01:12:05;101885.97;;;15.92;70.31
4767;BME280;2397;53.576;9.746;2023-06-10T01:14:38;101889.06;;;15.80;70.83
4767;BME280;2397;53.576;9.746;2023-06-10T01:17:12;101883.09;;;15.78;70.76
4767;BME280;2397;53.576;9.746;2023-06-10T01:19:38;101885.50;;;15.71;71.00
4767;BME280;2397;53.576;9.746;2023-06-10T01:22:07;101891.84;;;15.70;71.21
4767;BME280;2397;53.576;9.746;2023-06-10T01:24:34;101888.66;;;15.67;71.12
4767;BME280;2397;53.576;9.746;2023-06-10T01:27:01;101886.97;;;15.66;70.81
4767;BME280;2397;53.576;9.746;2023-06-10T01:29:45;101892.47;;;15.64;70.60
4767;BME280;2397;53.576;9.746;2023-06-10T01:32:27;101900.13;;;15.67;70.89
4767;BME280;2397;53.576;9.746;2023-06-10T01:34:55;101903.94;;;15.65;70.55
4767;BME280;2397;53.576;9.746;2023-06-10T01:37:24;101895.13;;;15.64;70.56
4767;BME280;2397;53.576;9.746;2023-06-10T01:39:55;101900.66;;;15.71;69.93
4767;BME280;2397;53.576;9.746;2023-06-10T01:42:23;101899.31;;;15.67;70.18
4767;BME280;2397;53.576;9.746;2023-06-10T01:44:50;101895.59;;;15.60;70.02
4767;BME280;2397;53.576;9.746;2023-06-10T01:47:17;101899.31;;;15.49;70.32
4767;BME280;2397;53.576;9.746;2023-06-10T01:49:44;101899.50;;;15.48;70.59
4767;BME280;2397;53.576;9.746;2023-06-10T01:52:10;101903.22;;;15.37;71.04
4767;BME280;2397;53.576;9.746;2023-06-10T01:54:37;101908.16;;;15.32;71.40
4767;BME280;2397;53.576;9.746;2023-06-10T01:57:04;101901.97;;;15.32;71.22
4767;BME280;2397;53.576;9.746;2023-06-10T01:59:32;101891.81;;;15.27;71.55
4767;BME280;2397;53.576;9.746;2023-06-10T02:01:59;101897.81;;;15.29;71.13
4767;BME280;2397;53.576;9.746;2023-06-10T02:04:26;101897.25;;;15.35;71.25
4767;BME280;2397;53.576;9.746;2023-06-10T02:06:52;101889.25;;;15.35;70.73
4767;BME280;2397;53.576;9.746;2023-06-10T02:09:19;101895.84;;;15.31;70.38
4767;BME280;2397;53.576;9.746;2023-06-10T02:11:46;101889.41;;;15.16;70.80
4767;BME280;2397;53.576;9.746;2023-06-10T02:14:13;101886.81;;;15.24;70.67
4767;BME280;2397;53.576;9.746;2023-06-10T02:16:40;101889.75;;;15.21;70.54
4767;BME280;2397;53.576;9.746;2023-06-10T02:19:06;101887.09;;;15.21;70.36
4767;BME280;2397;53.576;9.746;2023-06-10T02:21:34;101900.34;;;15.13;70.92
4767;BME280;2397;53.576;9.746;2023-06-10T02:24:01;101900.34;;;15.13;70.77
4767;BME280;2397;53.576;9.746;2023-06-10T02:26:28;101899.78;;;15.10;70.94
4767;BME280;2397;53.576;9.746;2023-06-10T02:28:58;101905.47;;;14.97;71.12
4767;BME280;2397;53.576;9.746;2023-06-10T02:31:26;101906.63;;;14.95;71.28
4767;BME280;2397;53.576;9.746;2023-06-10T02:33:53;101910.28;;;14.94;71.29
4767;BME280;2397;53.576;9.746;2023-06-10T02:36:20;101904.09;;;14.93;71.33
4767;BME280;2397;53.576;9.746;2023-06-10T02:38:48;101906.53;;;15.04;70.84
4767;BME280;2397;53.576;9.746;2023-06-10T02:41:15;101915.50;;;15.03;70.74
4767;BME280;2397;53.576;9.746;2023-06-10T02:43:42;101915.66;;;15.02;70.75
4767;BME280;2397;53.576;9.746;2023-06-10T02:46:10;101921.13;;;15.00;71.06
4767;BME280;2397;53.576;9.746;2023-06-10T02:48:41;101917.19;;;15.04;70.73
4767;BME280;2397;53.576;9.746;2023-06-10T02:51:10;101911.94;;;15.12;70.05
4767;BME280;2397;53.576;9.746;2023-06-10T02:53:41;101912.94;;;15.11;69.97
4767;BME280;2397;53.576;9.746;2023-06-10T02:56:10;101912.09;;;14.93;70.42
4767;BME280;2397;53.576;9.746;2023-06-10T02:58:38;101911.63;;;14.80;71.14
4767;BME280;2397;53.576;9.746;2023-06-10T03:01:06;101912.97;;;14.67;71.43
4767;BME280;2397;53.576;9.746;2023-06-10T03:03:42;101912.72;;;14.60;71.78
4767;BME280;2397;53.576;9.746;2023-06-10T03:06:13;101918.72;;;14.62;71.72
4767;BME280;2397;53.576;9.746;2023-06-10T03:08:40;101922.41;;;14.79;71.62
4767;BME280;2397;53.576;9.746;2023-06-10T03:11:12;101923.00;;;14.73;71.46
4767;BME280;2397;53.576;9.746;2023-06-10T03:13:39;101922.25;;;14.63;71.91
4767;BME280;2397;53.576;9.746;2023-06-10T03:16:09;101936.00;;;14.49;71.76
4767;BME280;2397;53.576;9.746;2023-06-10T03:18:37;101930.03;;;14.37;72.68
4767;BME280;2397;53.576;9.746;2023-06-10T03:21:04;101929.56;;;14.51;72.51
4767;BME280;2397;53.576;9.746;2023-06-10T03:23:31;101929.28;;;14.54;72.38
4767;BME280;2397;53.576;9.746;2023-06-10T03:26:00;101923.06;;;14.63;71.90
4767;BME280;2397;53.576;9.746;2023-06-10T03:28:28;101926.59;;;14.81;71.18
4767;BME280;2397;53.576;9.746;2023-06-10T03:30:55;101928.06;;;14.66;71.90
4767;BME280;2397;53.576;9.746;2023-06-10T03:33:24;101924.91;;;14.63;72.09
4767;BME280;2397;53.576;9.746;2023-06-10T03:35:51;101930.59;;;14.68;71.92
4767;BME280;2397;53.576;9.746;2023-06-10T03:38:18;101928.66;;;14.60;72.01
4767;BME280;2397;53.576;9.746;2023-06-10T03:40:45;101933.59;;;14.55;72.31
4767;BME280;2397;53.576;9.746;2023-06-10T03:43:12;101926.41;;;14.65;71.92
4767;BME280;2397;53.576;9.746;2023-06-10T03:45:38;101924.25;;;14.51;72.31
4767;BME280;2397;53.576;9.746;2023-06-10T03:48:06;101929.28;;;14.54;72.67
4767;BME280;2397;53.576;9.746;2023-06-10T03:50:42;101933.38;;;14.66;71.96
4767;BME280;2397;53.576;9.746;2023-06-10T03:53:09;101930.97;;;14.73;71.79
4767;BME280;2397;53.576;9.746;2023-06-10T03:55:37;101929.75;;;14.67;72.42
4767;BME280;2397;53.576;9.746;2023-06-10T03:58:04;101933.69;;;14.63;72.29
4767;BME280;2397;53.576;9.746;2023-06-10T04:00:31;101926.31;;;14.57;72.73
4767;BME280;2397;53.576;9.746;2023-06-10T04:02:59;101925.03;;;14.61;72.87
4767;BME280;2397;53.576;9.746;2023-06-10T04:05:35;101923.00;;;14.73;72.20
4767;BME280;2397;53.576;9.746;2023-06-10T04:08:02;101924.38;;;14.77;72.35
4767;BME280;2397;53.576;9.746;2023-06-10T04:10:29;101919.19;;;14.75;72.24
4767;BME280;2397;53.576;9.746;2023-06-10T04:12:55;101921.13;;;14.83;72.30
4767;BME280;2397;53.576;9.746;2023-06-10T04:15:25;101921.41;;;14.80;72.44
4767;BME280;2397;53.576;9.746;2023-06-10T04:17:52;101926.16;;;14.86;72.25
4767;BME280;2397;53.576;9.746;2023-06-10T04:20:22;101920.53;;;14.62;73.33
4767;BME280;2397;53.576;9.746;2023-06-10T04:22:49;101925.22;;;14.77;73.08
4767;BME280;2397;53.576;9.746;2023-06-10T04:25:15;101930.97;;;14.90;72.71
4767;BME280;2397;53.576;9.746;2023-06-10T04:27:43;101935.41;;;14.99;72.36
4767;BME280;2397;53.576;9.746;2023-06-10T04:30:10;101922.91;;;15.09;72.02
4767;BME280;2397;53.576;9.746;2023-06-10T04:32:38;101926.22;;;15.11;72.00
4767;BME280;2397;53.576;9.746;2023-06-10T04:35:08;101921.91;;;15.10;72.66
4767;BME280;2397;53.576;9.746;2023-06-10T04:37:38;101918.53;;;15.08;72.67
4767;BME280;2397;53.576;9.746;2023-06-10T04:40:05;101922.81;;;15.19;72.18
4767;BME280;2397;53.576;9.746;2023-06-10T04:42:32;101922.84;;;15.36;71.94
4767;BME280;2397;53.576;9.746;2023-06-10T04:44:59;101928.69;;;15.40;72.01
4767;BME280;2397;53.576;9.746;2023-06-10T04:47:26;101924.56;;;15.45;72.20
4767;BME280;2397;53.576;9.746;2023-06-10T04:49:53;101928.13;;;15.54;72.22
4767;BME280;2397;53.576;9.746;2023-06-10T04:52:19;101927.00;;;15.56;71.67
4767;BME280;2397;53.576;9.746;2023-06-10T04:54:48;101926.69;;;15.59;72.02
4767;BME280;2397;53.576;9.746;2023-06-10T04:57:14;101925.88;;;15.59;72.15
4767;BME280;2397;53.576;9.746;2023-06-10T04:59:41;101924.78;;;15.69;72.19
4767;BME280;2397;53.576;9.746;2023-06-10T05:02:07;101932.19;;;15.83;71.87
4767;BME280;2397;53.576;9.746;2023-06-10T05:04:35;101920.59;;;15.92;72.13
4767;BME280;2397;53.576;9.746;2023-06-10T05:07:02;101923.97;;;15.94;72.38
4767;BME280;2397;53.576;9.746;2023-06-10T05:09:29;101926.34;;;16.05;72.06
4767;BME280;2397;53.576;9.746;2023-06-10T05:11:56;101922.50;;;16.00;72.17
4767;BME280;2397;53.576;9.746;2023-06-10T05:14:22;101930.09;;;15.95;72.91
4767;BME280;2397;53.576;9.746;2023-06-10T05:16:49;101929.06;;;16.13;72.85
4767;BME280;2397;53.576;9.746;2023-06-10T05:19:16;101925.09;;;16.17;73.05
4767;BME280;2397;53.576;9.746;2023-06-10T05:21:44;101919.81;;;16.33;71.70
4767;BME280;2397;53.576;9.746;2023-06-10T05:24:11;101926.19;;;16.40;71.46
4767;BME280;2397;53.576;9.746;2023-06-10T05:26:38;101922.16;;;16.28;71.93
4767;BME280;2397;53.576;9.746;2023-06-10T05:29:05;101929.00;;;16.39;71.52
4767;BME280;2397;53.576;9.746;2023-06-10T05:31:32;101923.59;;;16.48;71.07
4767;BME280;2397;53.576;9.746;2023-06-10T05:33:59;101927.25;;;16.47;70.84
4767;BME280;2397;53.576;9.746;2023-06-10T05:36:25;101926.59;;;16.45;71.01
4767;BME280;2397;53.576;9.746;2023-06-10T05:38:53;101927.94;;;16.49;71.26
4767;BME280;2397;53.576;9.746;2023-06-10T05:41:19;101920.28;;;16.54;70.87
4767;BME280;2397;53.576;9.746;2023-06-10T05:43:47;101922.31;;;16.60;71.04
4767;BME280;2397;53.576;9.746;2023-06-10T05:46:14;101920.59;;;16.51;71.67
4767;BME280;2397;53.576;9.746;2023-06-10T05:48:40;101920.53;;;16.77;71.75
4767;BME280;2397;53.576;9.746;2023-06-10T05:51:07;101916.75;;;16.96;70.11
4767;BME280;2397;53.576;9.746;2023-06-10T05:53:34;101920.75;;;17.08;70.44
4767;BME280;2397;53.576;9.746;2023-06-10T05:56:00;101918.78;;;17.10;70.11
4767;BME280;2397;53.576;9.746;2023-06-10T05:58:27;101913.28;;;17.19;70.13
4767;BME280;2397;53.576;9.746;2023-06-10T06:00:53;101910.44;;;17.37;69.15
4767;BME280;2397;53.576;9.746;2023-06-10T06:03:20;101910.31;;;17.46;67.60
4767;BME280;2397;53.576;9.746;2023-06-10T06:05:47;101910.16;;;17.64;66.87
4767;BME280;2397;53.576;9.746;2023-06-10T06:08:13;101915.50;;;17.64;66.17
4767;BME280;2397;53.576;9.746;2023-06-10T06:10:44;101907.47;;;17.56;66.66
4767;BME280;2397;53.576;9.746;2023-06-10T06:13:11;101907.97;;;17.59;66.58
4767;BME280;2397;53.576;9.746;2023-06-10T06:15:37;101906.66;;;17.55;67.01
4767;BME280;2397;53.576;9.746;2023-06-10T06:18:04;101907.28;;;17.65;67.08
4767;BME280;2397;53.576;9.746;2023-06-10T06:20:31;101904.81;;;17.72;67.04
4767;BME280;2397;53.576;9.746;2023-06-10T06:22:58;101904.44;;;17.83;66.79
4767;BME280;2397;53.576;9.746;2023-06-10T06:25:24;101894.06;;;17.96;64.78
4767;BME280;2397;53.576;9.746;2023-06-10T06:27:51;101901.41;;;18.02;64.71
4767;BME280;2397;53.576;9.746;2023-06-10T06:30:18;101899.22;;;17.97;65.13
4767;BME280;2397;53.576;9.746;2023-06-10T06:32:44;101899.03;;;18.07;65.31
4767;BME280;2397;53.576;9.746;2023-06-10T06:35:11;101906.88;;;18.08;64.57
4767;BME280;2397;53.576;9.746;2023-06-10T06:37:38;101906.78;;;17.94;65.56
4767;BME280;2397;53.576;9.746;2023-06-10T06:40:22;101904.88;;;18.10;65.86
4767;BME280;2397;53.576;9.746;2023-06-10T06:42:48;101914.72;;;18.10;66.22
4767;BME280;2397;53.576;9.746;2023-06-10T06:45:22;101914.34;;;18.29;65.64
4767;BME280;2397;53.576;9.746;2023-06-10T06:47:48;101911.66;;;18.37;64.86
4767;BME280;2397;53.576;9.746;2023-06-10T06:50:15;101898.41;;;18.51;64.86
4767;BME280;2397;53.576;9.746;2023-06-10T06:52:43;101903.16;;;18.72;62.86
4767;BME280;2397;53.576;9.746;2023-06-10T06:55:09;101905.38;;;18.91;61.25
4767;BME280;2397;53.576;9.746;2023-06-10T06:57:37;101907.88;;;18.92;61.62
4767;BME280;2397;53.576;9.746;2023-06-10T07:00:04;101912.03;;;18.95;61.59
4767;BME280;2397;53.576;9.746;2023-06-10T07:02:31;101906.28;;;19.06;61.08
4767;BME280;2397;53.576;9.746;2023-06-10T07:04:59;101911.56;;;19.14;60.89
4767;BME280;2397;53.576;9.746;2023-06-10T07:07:26;101907.81;;;19.00;61.91
4767;BME280;2397;53.576;9.746;2023-06-10T07:09:52;101909.22;;;19.19;61.47
4767;BME280;2397;53.576;9.746;2023-06-10T07:12:19;101914.53;;;19.27;62.40
4767;BME280;2397;53.576;9.746;2023-06-10T07:14:48;101915.59;;;19.40;60.27
4767;BME280;2397;53.576;9.746;2023-06-10T07:17:15;101918.13;;;19.56;60.02
4767;BME280;2397;53.576;9.746;2023-06-10T07:19:41;101918.16;;;19.34;58.99
4767;BME280;2397;53.576;9.746;2023-06-10T07:22:08;101919.09;;;19.41;61.31
4767;BME280;2397;53.576;9.746;2023-06-10T07:24:35;101929.31;;;19.60;60.64
4767;BME280;2397;53.576;9.746;2023-06-10T07:27:01;101921.28;;;19.60;59.08
4767;BME280;2397;53.576;9.746;2023-06-10T07:29:28;101928.56;;;19.66;58.75
4767;BME280;2397;53.576;9.746;2023-06-10T07:31:54;101929.28;;;19.97;58.00
4767;BME280;2397;53.576;9.746;2023-06-10T07:34:21;101926.75;;;20.18;58.93
4767;BME280;2397;53.576;9.746;2023-06-10T07:36:48;101929.56;;;20.02;58.44
4767;BME280;2397;53.576;9.746;2023-06-10T07:39:14;101931.66;;;20.29;57.62
4767;BME280;2397;53.576;9.746;2023-06-10T07:41:41;101928.22;;;20.50;56.31
4767;BME280;2397;53.576;9.746;2023-06-10T07:44:07;101926.81;;;20.39;57.50
4767;BME280;2397;53.576;9.746;2023-06-10T07:46:34;101919.81;;;20.38;56.02
4767;BME280;2397;53.576;9.746;2023-06-10T07:49:01;101911.84;;;20.59;56.07
4767;BME280;2397;53.576;9.746;2023-06-10T07:51:28;101916.97;;;20.75;57.07
4767;BME280;2397;53.576;9.746;2023-06-10T07:53:55;101928.78;;;20.95;56.94
4767;BME280;2397;53.576;9.746;2023-06-10T07:56:21;101908.75;;;21.12;55.80
4767;BME280;2397;53.576;9.746;2023-06-10T07:58:48;101911.81;;;21.30;55.10
4767;BME280;2397;53.576;9.746;2023-06-10T08:01:15;101910.66;;;21.39;53.84
4767;BME280;2397;53.576;9.746;2023-06-10T08:03:42;101908.31;;;21.57;53.77
4767;BME280;2397;53.576;9.746;2023-06-10T08:06:09;101906.16;;;21.67;52.38
4767;BME280;2397;53.576;9.746;2023-06-10T08:08:37;101906.91;;;21.61;53.18
4767;BME280;2397;53.576;9.746;2023-06-10T08:11:10;101905.97;;;21.27;53.64
4767;BME280;2397;53.576;9.746;2023-06-10T08:13:37;101913.97;;;21.41;53.75
4767;BME280;2397;53.576;9.746;2023-06-10T08:16:04;101907.09;;;21.60;52.87
4767;BME280;2397;53.576;9.746;2023-06-10T08:18:30;101901.88;;;21.73;53.85
4767;BME280;2397;53.576;9.746;2023-06-10T08:20:57;101901.50;;;22.10;52.38
4767;BME280;2397;53.576;9.746;2023-06-10T08:23:23;101896.97;;;22.10;50.82
4767;BME280;2397;53.576;9.746;2023-06-10T08:25:50;101901.16;;;22.26;51.61
4767;BME280;2397;53.576;9.746;2023-06-10T08:28:17;101890.88;;;22.36;50.34
4767;BME280;2397;53.576;9.746;2023-06-10T08:30:45;101900.53;;;22.51;50.63
4767;BME280;2397;53.576;9.746;2023-06-10T08:33:11;101894.97;;;22.66;50.87
4767;BME280;2397;53.576;9.746;2023-06-10T08:35:38;101900.34;;;22.59;51.43
4767;BME280;2397;53.576;9.746;2023-06-10T08:38:06;101892.75;;;22.82;48.95
4767;BME280;2397;53.576;9.746;2023-06-10T08:40:33;101892.56;;;22.84;49.65
4767;BME280;2397;53.576;9.746;2023-06-10T08:43:10;101891.53;;;22.91;48.20
4767;BME280;2397;53.576;9.746;2023-06-10T08:45:42;101889.47;;;22.87;48.85
4767;BME280;2397;53.576;9.746;2023-06-10T08:48:13;101891.34;;;23.13;47.95
4767;BME280;2397;53.576;9.746;2023-06-10T08:50:41;101894.03;;;22.99;48.29
4767;BME280;2397;53.576;9.746;2023-06-10T08:53:07;101899.19;;;22.94;48.74
4767;BME280;2397;53.576;9.746;2023-06-10T08:55:42;101891.72;;;22.83;49.79
4767;BME280;2397;53.576;9.746;2023-06-10T08:58:12;101888.25;;;23.02;49.26
4767;BME280;2397;53.576;9.746;2023-06-10T09:00:40;101883.72;;;23.10;47.88
4767;BME280;2397;53.576;9.746;2023-06-10T09:03:06;101888.06;;;23.17;49.04
4767;BME280;2397;53.576;9.746;2023-06-10T09:05:35;101891.41;;;23.26;49.37
4767;BME280;2397;53.576;9.746;2023-06-10T09:08:08;101893.84;;;23.08;49.44
4767;BME280;2397;53.576;9.746;2023-06-10T09:10:35;101889.56;;;23.33;49.49
4767;BME280;2397;53.576;9.746;2023-06-10T09:13:02;101874.84;;;23.61;47.60
4767;BME280;2397;53.576;9.746;2023-06-10T09:15:28;101879.19;;;23.62;47.33
4767;BME280;2397;53.576;9.746;2023-06-10T09:17:55;101887.66;;;23.79;50.00
4767;BME280;2397;53.576;9.746;2023-06-10T09:20:23;101885.81;;;23.73;49.28
4767;BME280;2397;53.576;9.746;2023-06-10T09:22:49;101874.44;;;23.58;48.01
4767;BME280;2397;53.576;9.746;2023-06-10T09:25:16;101872.34;;;23.53;48.35
4767;BME280;2397;53.576;9.746;2023-06-10T09:27:50;101877.34;;;23.43;46.84
4767;BME280;2397;53.576;9.746;2023-06-10T09:30:30;101878.78;;;23.39;48.38
4767;BME280;2397;53.576;9.746;2023-06-10T09:32:59;101870.25;;;23.75;47.63
4767;BME280;2397;53.576;9.746;2023-06-10T09:35:27;101864.00;;;24.07;46.49
4767;BME280;2397;53.576;9.746;2023-06-10T09:37:59;101866.84;;;24.25;45.76
4767;BME280;2397;53.576;9.746;2023-06-10T09:40:26;101862.97;;;24.08;46.03
4767;BME280;2397;53.576;9.746;2023-06-10T09:43:00;101873.53;;;23.90;48.03
4767;BME280;2397;53.576;9.746;2023-06-10T09:45:31;101867.03;;;24.30;45.70
4767;BME280;2397;53.576;9.746;2023-06-10T09:47:58;101864.09;;;24.44;46.66
4767;BME280;2397;53.576;9.746;2023-06-10T09:50:25;101860.28;;;24.52;46.49
4767;BME280;2397;53.576;9.746;2023-06-10T09:52:52;101866.28;;;24.60;46.08
4767;BME280;2397;53.576;9.746;2023-06-10T09:55:19;101860.28;;;24.65;45.65
4767;BME280;2397;53.576;9.746;2023-06-10T09:57:49;101865.31;;;24.86;45.22
4767;BME280;2397;53.576;9.746;2023-06-10T10:00:16;101863.78;;;24.72;46.20
4767;BME280;2397;53.576;9.746;2023-06-10T10:02:51;101857.78;;;24.94;46.33
4767;BME280;2397;53.576;9.746;2023-06-10T10:05:20;101864.19;;;25.00;46.09
4767;BME280;2397;53.576;9.746;2023-06-10T10:07:48;101861.28;;;25.32;45.22
4767;BME280;2397;53.576;9.746;2023-06-10T10:10:17;101859.56;;;25.38;45.15
4767;BME280;2397;53.576;9.746;2023-06-10T10:12:46;101849.75;;;25.43;43.15
4767;BME280;2397;53.576;9.746;2023-06-10T10:15:13;101856.63;;;25.46;45.20
4767;BME280;2397;53.576;9.746;2023-06-10T10:18:06;101858.59;;;25.57;44.71
4767;BME280;2397;53.576;9.746;2023-06-10T10:20:35;101851.72;;;25.79;43.32
4767;BME280;2397;53.576;9.746;2023-06-10T10:23:04;101854.84;;;25.58;44.25
4767;BME280;2397;53.576;9.746;2023-06-10T10:25:38;101848.47;;;25.70;44.32
4767;BME280;2397;53.576;9.746;2023-06-10T10:28:10;101848.97;;;26.04;43.49
4767;BME280;2397;53.576;9.746;2023-06-10T10:30:42;101847.31;;;26.21;41.35
4767;BME280;2397;53.576;9.746;2023-06-10T10:33:13;101849.34;;;26.25;43.22
4767;BME280;2397;53.576;9.746;2023-06-10T10:35:43;101846.22;;;26.40;41.99
4767;BME280;2397;53.576;9.746;2023-06-10T10:38:10;101841.19;;;26.43;41.42
4767;BME280;2397;53.576;9.746;2023-06-10T10:40:36;101832.19;;;26.49;41.65
4767;BME280;2397;53.576;9.746;2023-06-10T10:43:04;101841.94;;;26.50;41.91
4767;BME280;2397;53.576;9.746;2023-06-10T10:45:33;101839.56;;;26.60;40.82
4767;BME280;2397;53.576;9.746;2023-06-10T10:48:05;101841.19;;;26.61;41.34
4767;BME280;2397;53.576;9.746;2023-06-10T10:50:35;101835.69;;;26.50;41.24
4767;BME280;2397;53.576;9.746;2023-06-10T10:53:03;101838.91;;;26.58;43.35
4767;BME280;2397;53.576;9.746;2023-06-10T10:55:30;101829.44;;;26.67;41.61
4767;BME280;2397;53.576;9.746;2023-06-10T10:57:58;101843.47;;;26.76;41.59
4767;BME280;2397;53.576;9.746;2023-06-10T11:00:36;101841.38;;;26.78;42.50
4767;BME280;2397;53.576;9.746;2023-06-10T11:05:45;101839.34;;;27.03;41.21
4767;BME280;2397;53.576;9.746;2023-06-10T11:08:44;101838.59;;;26.96;41.52
4767;BME280;2397;53.576;9.746;2023-06-10T11:11:18;101832.63;;;27.17;41.70
4767;BME280;2397;53.576;9.746;2023-06-10T11:16:28;101826.19;;;27.64;40.11
4767;BME280;2397;53.576;9.746;2023-06-10T11:18:56;101834.22;;;27.70;42.20
4767;BME280;2397;53.576;9.746;2023-06-10T11:21:24;101828.69;;;27.88;41.49
4767;BME280;2397;53.576;9.746;2023-06-10T11:23:57;101821.78;;;28.09;40.09
4767;BME280;2397;53.576;9.746;2023-06-10T11:31:38;101820.06;;;28.42;38.89
4767;BME280;2397;53.576;9.746;2023-06-10T11:34:06;101816.72;;;28.40;39.74
4767;BME280;2397;53.576;9.746;2023-06-10T11:36:36;101808.94;;;28.55;40.15
4767;BME280;2397;53.576;9.746;2023-06-10T11:39:04;101815.03;;;28.79;39.23
4767;BME280;2397;53.576;9.746;2023-06-10T11:41:32;101810.00;;;28.71;39.68
4767;BME280;2397;53.576;9.746;2023-06-10T11:44:02;101815.31;;;28.94;39.96
4767;BME280;2397;53.576;9.746;2023-06-10T11:46:29;101805.72;;;29.03;37.41
4767;BME280;2397;53.576;9.746;2023-06-10T11:48:57;101802.53;;;29.23;37.97
4767;BME280;2397;53.576;9.746;2023-06-10T11:51:32;101806.22;;;29.17;37.67
4767;BME280;2397;53.576;9.746;2023-06-10T11:53:58;101803.25;;;29.35;38.00
4767;BME280;2397;53.576;9.746;2023-06-10T11:56:26;101798.78;;;29.29;38.03
4767;BME280;2397;53.576;9.746;2023-06-10T11:59:02;101806.03;;;29.40;38.62
4767;BME280;2397;53.576;9.746;2023-06-10T12:01:33;101803.72;;;29.48;37.59
4767;BME280;2397;53.576;9.746;2023-06-10T12:06:44;101804.22;;;29.62;37.77
4767;BME280;2397;53.576;9.746;2023-06-10T12:12:00;101798.31;;;30.08;37.76
4767;BME280;2397;53.576;9.746;2023-06-10T12:14:55;101797.34;;;29.97;36.43
4767;BME280;2397;53.576;9.746;2023-06-10T12:20:01;101800.06;;;29.76;38.04
4767;BME280;2397;53.576;9.746;2023-06-10T12:22:39;101805.50;;;29.97;38.29
4767;BME280;2397;53.576;9.746;2023-06-10T12:25:08;101804.47;;;30.20;37.46
4767;BME280;2397;53.576;9.746;2023-06-10T12:27:36;101792.03;;;30.29;37.04
4767;BME280;2397;53.576;9.746;2023-06-10T12:30:05;101794.56;;;30.62;37.04
4767;BME280;2397;53.576;9.746;2023-06-10T12:32:39;101785.44;;;30.73;35.47
4767;BME280;2397;53.576;9.746;2023-06-10T12:35:08;101778.13;;;31.10;35.30
4767;BME280;2397;53.576;9.746;2023-06-10T12:37:36;101774.31;;;31.11;35.82
4767;BME280;2397;53.576;9.746;2023-06-10T12:40:08;101770.13;;;31.30;35.11
4767;BME280;2397;53.576;9.746;2023-06-10T12:42:35;101758.19;;;30.73;35.09
4767;BME280;2397;53.576;9.746;2023-06-10T12:45:04;101776.22;;;30.52;37.58
4767;BME280;2397;53.576;9.746;2023-06-10T12:47:34;101771.28;;;30.76;36.69
4767;BME280;2397;53.576;9.746;2023-06-10T12:50:02;101767.00;;;30.58;36.71
4767;BME280;2397;53.576;9.746;2023-06-10T12:52:29;101760.66;;;30.48;36.70
4767;BME280;2397;53.576;9.746;2023-06-10T12:54:56;101764.59;;;30.62;37.43
4767;BME280;2397;53.576;9.746;2023-06-10T12:57:22;101747.16;;;30.63;36.21
4767;BME280;2397;53.576;9.746;2023-06-10T12:59:49;101760.00;;;30.67;36.93
4767;BME280;2397;53.576;9.746;2023-06-10T13:02:19;101764.13;;;30.70;36.05
4767;BME280;2397;53.576;9.746;2023-06-10T13:04:46;101754.78;;;30.61;36.35
4767;BME280;2397;53.576;9.746;2023-06-10T13:07:13;101750.25;;;30.45;36.73
4767;BME280;2397;53.576;9.746;2023-06-10T13:09:40;101750.16;;;30.35;36.66
4767;BME280;2397;53.576;9.746;2023-06-10T13:12:07;101757.50;;;30.61;36.50
4767;BME280;2397;53.576;9.746;2023-06-10T13:14:41;101751.50;;;30.59;37.05
4767;BME280;2397;53.576;9.746;2023-06-10T13:17:08;101743.38;;;30.69;35.79
4767;BME280;2397;53.576;9.746;2023-06-10T13:19:35;101744.09;;;30.81;34.81
4767;BME280;2397;53.576;9.746;2023-06-10T13:22:01;101741.16;;;30.92;34.35
4767;BME280;2397;53.576;9.746;2023-06-10T13:24:28;101734.97;;;31.02;35.10
4767;BME280;2397;53.576;9.746;2023-06-10T13:26:55;101719.81;;;31.16;34.73
4767;BME280;2397;53.576;9.746;2023-06-10T13:29:22;101734.16;;;31.43;34.11
4767;BME280;2397;53.576;9.746;2023-06-10T13:31:49;101721.09;;;31.45;33.04
4767;BME280;2397;53.576;9.746;2023-06-10T13:34:16;101726.63;;;31.60;34.38
4767;BME280;2397;53.576;9.746;2023-06-10T13:36:42;101717.75;;;31.85;33.42
4767;BME280;2397;53.576;9.746;2023-06-10T13:39:09;101710.25;;;31.60;33.67